sensor_id;sensor_type;location;lat;lon;timestamp;P1;durP1;ratioP1;P2;durP2;ratioP2
54745;SDS011;40640;48.130;11.356;2022-10-16T00:02:43;6.90;;;1.52;;
54745;SDS011;40640;48.130;11.356;2022-10-16T00:06:48;3.00;;;1.77;;
54745;SDS011;40640;48.130;11.356;2022-10-16T00:10:51;3.65;;;1.88;;
54745;SDS011;40640;48.130;11.356;2022-10-16T00:14:55;2.13;;;1.92;;
54745;SDS011;40640;48.130;11.356;2022-10-16T00:18:58;9.15;;;1.83;;
54745;SDS011;40640;48.130;11.356;2022-10-16T00:23:01;2.08;;;1.83;;
54745;SDS011;40640;48.130;11.356;2022-10-16T00:27:04;3.70;;;1.52;;
54745;SDS011;40640;48.130;11.356;2022-10-16T00:31:09;2.75;;;1.73;;
54745;SDS011;40640;48.130;11.356;2022-10-16T00:35:13;2.88;;;1.63;;
54745;SDS011;40640;48.130;11.356;2022-10-16T00:39:15;4.25;;;1.55;;
54745;SDS011;40640;48.130;11.356;2022-10-16T00:43:33;5.25;;;1.77;;
54745;SDS011;40640;48.130;11.356;2022-10-16T00:47:40;3.53;;;1.85;;
54745;SDS011;40640;48.130;11.356;2022-10-16T00:51:47;1.80;;;1.42;;
54745;SDS011;40640;48.130;11.356;2022-10-16T00:55:53;5.28;;;1.77;;
54745;SDS011;40640;48.130;11.356;2022-10-16T00:59:56;2.60;;;2.00;;
54745;SDS011;40640;48.130;11.356;2022-10-16T01:04:01;3.17;;;1.92;;
54745;SDS011;40640;48.130;11.356;2022-10-16T01:08:04;1.92;;;1.52;;
54745;SDS011;40640;48.130;11.356;2022-10-16T01:12:14;4.05;;;1.83;;
54745;SDS011;40640;48.130;11.356;2022-10-16T01:16:23;3.10;;;1.98;;
54745;SDS011;40640;48.130;11.356;2022-10-16T01:20:35;2.30;;;1.83;;
54745;SDS011;40640;48.130;11.356;2022-10-16T01:24:41;3.13;;;1.65;;
54745;SDS011;40640;48.130;11.356;2022-10-16T01:28:54;2.95;;;1.98;;
54745;SDS011;40640;48.130;11.356;2022-10-16T01:33:01;2.90;;;1.92;;
54745;SDS011;40640;48.130;11.356;2022-10-16T01:37:12;3.90;;;2.10;;
54745;SDS011;40640;48.130;11.356;2022-10-16T01:41:20;5.97;;;2.33;;
54745;SDS011;40640;48.130;11.356;2022-10-16T01:45:28;2.83;;;1.90;;
54745;SDS011;40640;48.130;11.356;2022-10-16T01:49:34;8.63;;;2.20;;
54745;SDS011;40640;48.130;11.356;2022-10-16T01:53:38;2.45;;;1.95;;
54745;SDS011;40640;48.130;11.356;2022-10-16T01:57:44;2.97;;;2.13;;
54745;SDS011;40640;48.130;11.356;2022-10-16T02:01:54;6.38;;;1.92;;
54745;SDS011;40640;48.130;11.356;2022-10-16T02:06:01;2.58;;;1.73;;
54745;SDS011;40640;48.130;11.356;2022-10-16T02:10:04;3.80;;;2.00;;
54745;SDS011;40640;48.130;11.356;2022-10-16T02:14:07;2.80;;;1.73;;
54745;SDS011;40640;48.130;11.356;2022-10-16T02:18:11;3.17;;;1.80;;
54745;SDS011;40640;48.130;11.356;2022-10-16T02:22:15;2.53;;;2.08;;
54745;SDS011;40640;48.130;11.356;2022-10-16T02:26:25;3.67;;;2.10;;
54745;SDS011;40640;48.130;11.356;2022-10-16T02:30:33;3.95;;;2.05;;
54745;SDS011;40640;48.130;11.356;2022-10-16T02:34:41;3.38;;;2.00;;
54745;SDS011;40640;48.130;11.356;2022-10-16T02:38:45;2.92;;;1.95;;
54745;SDS011;40640;48.130;11.356;2022-10-16T02:42:49;3.22;;;1.95;;
54745;SDS011;40640;48.130;11.356;2022-10-16T02:46:52;4.25;;;2.00;;
54745;SDS011;40640;48.130;11.356;2022-10-16T02:50:57;2.80;;;1.92;;
54745;SDS011;40640;48.130;11.356;2022-10-16T02:55:00;4.47;;;1.98;;
54745;SDS011;40640;48.130;11.356;2022-10-16T02:59:02;11.80;;;2.33;;
54745;SDS011;40640;48.130;11.356;2022-10-16T03:03:05;3.20;;;2.10;;
54745;SDS011;40640;48.130;11.356;2022-10-16T03:07:10;8.38;;;2.40;;
54745;SDS011;40640;48.130;11.356;2022-10-16T03:11:12;2.40;;;2.17;;
54745;SDS011;40640;48.130;11.356;2022-10-16T03:15:15;4.97;;;1.70;;
54745;SDS011;40640;48.130;11.356;2022-10-16T03:19:18;6.47;;;2.30;;
54745;SDS011;40640;48.130;11.356;2022-10-16T03:23:23;2.97;;;1.85;;
54745;SDS011;40640;48.130;11.356;2022-10-16T03:27:26;2.70;;;1.70;;
54745;SDS011;40640;48.130;11.356;2022-10-16T03:31:29;4.45;;;1.83;;
54745;SDS011;40640;48.130;11.356;2022-10-16T03:35:32;2.97;;;2.00;;
54745;SDS011;40640;48.130;11.356;2022-10-16T03:39:36;5.95;;;2.70;;
54745;SDS011;40640;48.130;11.356;2022-10-16T03:43:40;2.97;;;1.92;;
54745;SDS011;40640;48.130;11.356;2022-10-16T03:47:42;5.40;;;2.00;;
54745;SDS011;40640;48.130;11.356;2022-10-16T03:51:45;3.78;;;2.20;;
54745;SDS011;40640;48.130;11.356;2022-10-16T03:55:49;3.38;;;1.85;;
54745;SDS011;40640;48.130;11.356;2022-10-16T03:59:52;2.72;;;1.60;;
54745;SDS011;40640;48.130;11.356;2022-10-16T04:03:55;1.63;;;1.52;;
54745;SDS011;40640;48.130;11.356;2022-10-16T04:07:57;3.83;;;1.65;;
54745;SDS011;40640;48.130;11.356;2022-10-16T04:12:02;3.40;;;1.73;;
54745;SDS011;40640;48.130;11.356;2022-10-16T04:16:05;4.90;;;1.50;;
54745;SDS011;40640;48.130;11.356;2022-10-16T04:20:08;2.33;;;1.60;;
54745;SDS011;40640;48.130;11.356;2022-10-16T04:24:11;3.55;;;1.70;;
54745;SDS011;40640;48.130;11.356;2022-10-16T04:28:15;9.15;;;4.05;;
54745;SDS011;40640;48.130;11.356;2022-10-16T04:32:17;3.85;;;2.22;;
54745;SDS011;40640;48.130;11.356;2022-10-16T04:36:20;2.92;;;2.10;;
54745;SDS011;40640;48.130;11.356;2022-10-16T04:40:28;2.03;;;1.83;;
54745;SDS011;40640;48.130;11.356;2022-10-16T04:44:35;8.93;;;1.98;;
54745;SDS011;40640;48.130;11.356;2022-10-16T04:48:38;6.88;;;2.50;;
54745;SDS011;40640;48.130;11.356;2022-10-16T04:52:40;4.65;;;2.10;;
54745;SDS011;40640;48.130;11.356;2022-10-16T04:56:43;20.00;;;8.15;;
54745;SDS011;40640;48.130;11.356;2022-10-16T05:00:49;18.40;;;8.93;;
54745;SDS011;40640;48.130;11.356;2022-10-16T05:04:52;5.00;;;2.60;;
54745;SDS011;40640;48.130;11.356;2022-10-16T05:08:55;4.82;;;2.05;;
54745;SDS011;40640;48.130;11.356;2022-10-16T05:12:58;2.88;;;1.73;;
54745;SDS011;40640;48.130;11.356;2022-10-16T05:17:02;9.60;;;4.40;;
54745;SDS011;40640;48.130;11.356;2022-10-16T05:21:04;8.00;;;3.70;;
54745;SDS011;40640;48.130;11.356;2022-10-16T05:25:08;4.90;;;3.40;;
54745;SDS011;40640;48.130;11.356;2022-10-16T05:29:10;5.13;;;3.70;;
54745;SDS011;40640;48.130;11.356;2022-10-16T05:33:14;6.93;;;3.25;;
54745;SDS011;40640;48.130;11.356;2022-10-16T05:37:17;3.28;;;2.47;;
54745;SDS011;40640;48.130;11.356;2022-10-16T05:41:20;8.82;;;3.00;;
54745;SDS011;40640;48.130;11.356;2022-10-16T05:45:24;4.63;;;3.03;;
54745;SDS011;40640;48.130;11.356;2022-10-16T05:49:28;2.80;;;2.55;;
54745;SDS011;40640;48.130;11.356;2022-10-16T05:53:32;4.00;;;3.08;;
54745;SDS011;40640;48.130;11.356;2022-10-16T05:57:36;5.60;;;2.83;;
54745;SDS011;40640;48.130;11.356;2022-10-16T06:01:39;4.15;;;3.00;;
54745;SDS011;40640;48.130;11.356;2022-10-16T06:05:43;3.00;;;2.30;;
54745;SDS011;40640;48.130;11.356;2022-10-16T06:09:47;5.32;;;2.88;;
54745;SDS011;40640;48.130;11.356;2022-10-16T06:13:50;4.50;;;2.83;;
54745;SDS011;40640;48.130;11.356;2022-10-16T06:17:54;2.97;;;2.47;;
54745;SDS011;40640;48.130;11.356;2022-10-16T06:21:59;4.45;;;2.65;;
54745;SDS011;40640;48.130;11.356;2022-10-16T06:26:04;8.02;;;2.78;;
54745;SDS011;40640;48.130;11.356;2022-10-16T06:30:08;4.05;;;2.85;;
54745;SDS011;40640;48.130;11.356;2022-10-16T06:34:11;4.32;;;2.65;;
54745;SDS011;40640;48.130;11.356;2022-10-16T06:38:15;3.88;;;2.50;;
54745;SDS011;40640;48.130;11.356;2022-10-16T06:42:18;4.40;;;2.80;;
54745;SDS011;40640;48.130;11.356;2022-10-16T06:46:22;10.40;;;4.65;;
54745;SDS011;40640;48.130;11.356;2022-10-16T06:50:25;8.50;;;3.65;;
54745;SDS011;40640;48.130;11.356;2022-10-16T06:54:29;6.10;;;2.65;;
54745;SDS011;40640;48.130;11.356;2022-10-16T06:58:43;5.65;;;2.50;;
54745;SDS011;40640;48.130;11.356;2022-10-16T07:02:46;5.55;;;2.83;;
54745;SDS011;40640;48.130;11.356;2022-10-16T07:06:48;4.68;;;2.35;;
54745;SDS011;40640;48.130;11.356;2022-10-16T07:10:59;2.67;;;2.17;;
54745;SDS011;40640;48.130;11.356;2022-10-16T07:15:02;4.50;;;2.55;;
54745;SDS011;40640;48.130;11.356;2022-10-16T07:19:05;6.20;;;3.00;;
54745;SDS011;40640;48.130;11.356;2022-10-16T07:23:08;3.38;;;2.35;;
54745;SDS011;40640;48.130;11.356;2022-10-16T07:27:12;3.90;;;2.63;;
54745;SDS011;40640;48.130;11.356;2022-10-16T07:31:17;4.45;;;2.88;;
54745;SDS011;40640;48.130;11.356;2022-10-16T07:39:23;6.03;;;2.63;;
54745;SDS011;40640;48.130;11.356;2022-10-16T07:43:28;10.00;;;2.85;;
54745;SDS011;40640;48.130;11.356;2022-10-16T07:47:31;3.65;;;2.47;;
54745;SDS011;40640;48.130;11.356;2022-10-16T07:51:33;12.13;;;2.60;;
54745;SDS011;40640;48.130;11.356;2022-10-16T07:55:36;3.47;;;2.28;;
54745;SDS011;40640;48.130;11.356;2022-10-16T07:59:41;3.10;;;2.40;;
54745;SDS011;40640;48.130;11.356;2022-10-16T08:03:44;3.42;;;2.50;;
54745;SDS011;40640;48.130;11.356;2022-10-16T08:07:48;2.70;;;1.90;;
54745;SDS011;40640;48.130;11.356;2022-10-16T08:11:50;3.45;;;2.28;;
54745;SDS011;40640;48.130;11.356;2022-10-16T08:15:55;3.53;;;2.30;;
54745;SDS011;40640;48.130;11.356;2022-10-16T08:19:57;2.45;;;1.70;;
54745;SDS011;40640;48.130;11.356;2022-10-16T08:24:00;2.05;;;1.80;;
54745;SDS011;40640;48.130;11.356;2022-10-16T08:28:03;4.15;;;2.20;;
54745;SDS011;40640;48.130;11.356;2022-10-16T08:32:08;2.42;;;2.22;;
54745;SDS011;40640;48.130;11.356;2022-10-16T08:36:11;2.88;;;2.35;;
54745;SDS011;40640;48.130;11.356;2022-10-16T08:40:16;5.07;;;2.22;;
54745;SDS011;40640;48.130;11.356;2022-10-16T08:44:28;4.22;;;2.00;;
54745;SDS011;40640;48.130;11.356;2022-10-16T08:48:47;3.30;;;2.28;;
54745;SDS011;40640;48.130;11.356;2022-10-16T08:52:51;1.95;;;1.83;;
54745;SDS011;40640;48.130;11.356;2022-10-16T08:56:54;3.90;;;1.80;;
54745;SDS011;40640;48.130;11.356;2022-10-16T09:00:58;1.63;;;1.53;;
54745;SDS011;40640;48.130;11.356;2022-10-16T09:05:26;2.78;;;2.03;;
54745;SDS011;40640;48.130;11.356;2022-10-16T09:09:52;3.75;;;1.75;;
54745;SDS011;40640;48.130;11.356;2022-10-16T09:14:04;1.65;;;1.55;;
54745;SDS011;40640;48.130;11.356;2022-10-16T09:18:15;2.03;;;1.77;;
54745;SDS011;40640;48.130;11.356;2022-10-16T09:22:34;3.17;;;1.80;;
54745;SDS011;40640;48.130;11.356;2022-10-16T09:26:37;2.53;;;1.50;;
54745;SDS011;40640;48.130;11.356;2022-10-16T09:30:40;3.80;;;1.70;;
54745;SDS011;40640;48.130;11.356;2022-10-16T09:34:43;3.53;;;1.40;;
54745;SDS011;40640;48.130;11.356;2022-10-16T09:38:50;1.70;;;1.60;;
54745;SDS011;40640;48.130;11.356;2022-10-16T09:43:15;1.95;;;1.50;;
54745;SDS011;40640;48.130;11.356;2022-10-16T09:47:23;2.35;;;1.63;;
54745;SDS011;40640;48.130;11.356;2022-10-16T09:51:29;3.10;;;1.60;;
54745;SDS011;40640;48.130;11.356;2022-10-16T09:55:35;2.42;;;1.63;;
54745;SDS011;40640;48.130;11.356;2022-10-16T09:59:45;1.65;;;1.50;;
54745;SDS011;40640;48.130;11.356;2022-10-16T10:03:48;1.70;;;1.60;;
54745;SDS011;40640;48.130;11.356;2022-10-16T10:07:54;6.75;;;2.97;;
54745;SDS011;40640;48.130;11.356;2022-10-16T10:12:00;3.53;;;1.70;;
54745;SDS011;40640;48.130;11.356;2022-10-16T10:16:09;1.60;;;1.50;;
54745;SDS011;40640;48.130;11.356;2022-10-16T10:20:15;1.65;;;1.55;;
54745;SDS011;40640;48.130;11.356;2022-10-16T10:24:25;2.08;;;1.70;;
54745;SDS011;40640;48.130;11.356;2022-10-16T10:28:32;3.90;;;1.70;;
54745;SDS011;40640;48.130;11.356;2022-10-16T10:32:48;5.18;;;2.15;;
54745;SDS011;40640;48.130;11.356;2022-10-16T10:37:02;2.60;;;2.40;;
54745;SDS011;40640;48.130;11.356;2022-10-16T10:41:21;3.28;;;2.50;;
54745;SDS011;40640;48.130;11.356;2022-10-16T10:45:40;2.17;;;1.83;;
54745;SDS011;40640;48.130;11.356;2022-10-16T10:49:48;3.03;;;1.13;;
54745;SDS011;40640;48.130;11.356;2022-10-16T10:54:03;1.35;;;1.25;;
54745;SDS011;40640;48.130;11.356;2022-10-16T10:58:20;2.00;;;1.60;;
54745;SDS011;40640;48.130;11.356;2022-10-16T11:02:41;2.65;;;1.40;;
54745;SDS011;40640;48.130;11.356;2022-10-16T11:06:48;3.05;;;1.70;;
54745;SDS011;40640;48.130;11.356;2022-10-16T11:10:54;7.68;;;2.10;;
54745;SDS011;40640;48.130;11.356;2022-10-16T11:15:02;3.42;;;2.47;;
54745;SDS011;40640;48.130;11.356;2022-10-16T11:19:22;2.50;;;2.40;;
54745;SDS011;40640;48.130;11.356;2022-10-16T11:23:35;4.60;;;2.30;;
54745;SDS011;40640;48.130;11.356;2022-10-16T11:27:47;2.30;;;2.20;;
54745;SDS011;40640;48.130;11.356;2022-10-16T11:31:55;2.72;;;2.50;;
54745;SDS011;40640;48.130;11.356;2022-10-16T11:36:06;2.70;;;2.50;;
54745;SDS011;40640;48.130;11.356;2022-10-16T11:40:17;4.22;;;2.60;;
54745;SDS011;40640;48.130;11.356;2022-10-16T11:44:27;2.75;;;2.60;;
54745;SDS011;40640;48.130;11.356;2022-10-16T11:48:39;2.28;;;2.17;;
54745;SDS011;40640;48.130;11.356;2022-10-16T11:52:48;2.70;;;1.92;;
54745;SDS011;40640;48.130;11.356;2022-10-16T11:57:01;1.40;;;1.13;;
54745;SDS011;40640;48.130;11.356;2022-10-16T12:01:15;1.02;;;1.00;;
54745;SDS011;40640;48.130;11.356;2022-10-16T12:05:23;1.20;;;1.20;;
54745;SDS011;40640;48.130;11.356;2022-10-16T12:09:34;1.30;;;1.20;;
54745;SDS011;40640;48.130;11.356;2022-10-16T12:13:40;2.80;;;0.90;;
54745;SDS011;40640;48.130;11.356;2022-10-16T12:17:44;1.60;;;1.00;;
54745;SDS011;40640;48.130;11.356;2022-10-16T12:21:47;2.53;;;0.90;;
54745;SDS011;40640;48.130;11.356;2022-10-16T12:25:55;1.02;;;1.02;;
54745;SDS011;40640;48.130;11.356;2022-10-16T12:29:59;2.17;;;1.10;;
54745;SDS011;40640;48.130;11.356;2022-10-16T12:34:03;3.80;;;1.00;;
54745;SDS011;40640;48.130;11.356;2022-10-16T12:38:07;0.75;;;0.70;;
54745;SDS011;40640;48.130;11.356;2022-10-16T12:46:38;0.82;;;0.80;;
54745;SDS011;40640;48.130;11.356;2022-10-16T12:50:42;2.80;;;1.10;;
54745;SDS011;40640;48.130;11.356;2022-10-16T12:58:55;3.70;;;1.50;;
54745;SDS011;40640;48.130;11.356;2022-10-16T13:03:15;1.15;;;0.90;;
54745;SDS011;40640;48.130;11.356;2022-10-16T13:07:35;5.75;;;1.10;;
54745;SDS011;40640;48.130;11.356;2022-10-16T13:11:51;0.73;;;0.73;;
54745;SDS011;40640;48.130;11.356;2022-10-16T13:20:13;3.58;;;0.90;;
54745;SDS011;40640;48.130;11.356;2022-10-16T13:24:25;1.13;;;0.80;;
54745;SDS011;40640;48.130;11.356;2022-10-16T13:28:40;0.77;;;0.77;;
54745;SDS011;40640;48.130;11.356;2022-10-16T13:32:45;0.60;;;0.60;;
54745;SDS011;40640;48.130;11.356;2022-10-16T13:36:50;1.10;;;0.70;;
54745;SDS011;40640;48.130;11.356;2022-10-16T13:40:54;3.93;;;0.80;;
54745;SDS011;40640;48.130;11.356;2022-10-16T13:44:58;3.13;;;0.70;;
54745;SDS011;40640;48.130;11.356;2022-10-16T13:49:03;1.23;;;0.82;;
54745;SDS011;40640;48.130;11.356;2022-10-16T13:53:09;0.98;;;0.90;;
54745;SDS011;40640;48.130;11.356;2022-10-16T13:57:16;0.63;;;0.63;;
54745;SDS011;40640;48.130;11.356;2022-10-16T14:01:28;1.15;;;0.80;;
54745;SDS011;40640;48.130;11.356;2022-10-16T14:05:34;2.28;;;1.00;;
54745;SDS011;40640;48.130;11.356;2022-10-16T14:09:37;0.80;;;0.80;;
54745;SDS011;40640;48.130;11.356;2022-10-16T14:13:43;2.95;;;0.90;;
54745;SDS011;40640;48.130;11.356;2022-10-16T14:17:48;0.90;;;0.90;;
54745;SDS011;40640;48.130;11.356;2022-10-16T14:21:54;1.55;;;0.75;;
54745;SDS011;40640;48.130;11.356;2022-10-16T14:26:14;2.45;;;0.80;;
54745;SDS011;40640;48.130;11.356;2022-10-16T14:30:21;0.60;;;0.60;;
54745;SDS011;40640;48.130;11.356;2022-10-16T14:34:28;1.30;;;0.63;;
54745;SDS011;40640;48.130;11.356;2022-10-16T14:38:35;2.95;;;0.82;;
54745;SDS011;40640;48.130;11.356;2022-10-16T14:42:39;1.20;;;0.90;;
54745;SDS011;40640;48.130;11.356;2022-10-16T14:46:46;5.45;;;1.42;;
54745;SDS011;40640;48.130;11.356;2022-10-16T14:50:49;4.13;;;0.88;;
54745;SDS011;40640;48.130;11.356;2022-10-16T14:54:53;1.85;;;0.95;;
54745;SDS011;40640;48.130;11.356;2022-10-16T14:58:57;1.65;;;0.82;;
54745;SDS011;40640;48.130;11.356;2022-10-16T15:03:00;1.00;;;1.00;;
54745;SDS011;40640;48.130;11.356;2022-10-16T15:07:03;4.38;;;2.95;;
54745;SDS011;40640;48.130;11.356;2022-10-16T15:11:08;3.08;;;1.92;;
54745;SDS011;40640;48.130;11.356;2022-10-16T15:15:25;1.77;;;1.60;;
54745;SDS011;40640;48.130;11.356;2022-10-16T15:19:35;4.25;;;1.50;;
54745;SDS011;40640;48.130;11.356;2022-10-16T15:23:37;11.27;;;3.38;;
54745;SDS011;40640;48.130;11.356;2022-10-16T15:27:42;7.53;;;2.22;;
54745;SDS011;40640;48.130;11.356;2022-10-16T15:31:44;7.93;;;2.72;;
54745;SDS011;40640;48.130;11.356;2022-10-16T15:35:49;3.65;;;1.70;;
54745;SDS011;40640;48.130;11.356;2022-10-16T15:39:53;5.88;;;2.28;;
54745;SDS011;40640;48.130;11.356;2022-10-16T15:43:57;7.38;;;2.45;;
54745;SDS011;40640;48.130;11.356;2022-10-16T15:48:00;2.17;;;1.70;;
54745;SDS011;40640;48.130;11.356;2022-10-16T15:52:03;4.88;;;2.53;;
54745;SDS011;40640;48.130;11.356;2022-10-16T15:56:06;5.38;;;2.05;;
54745;SDS011;40640;48.130;11.356;2022-10-16T16:00:15;5.18;;;1.92;;
54745;SDS011;40640;48.130;11.356;2022-10-16T16:04:19;3.78;;;2.25;;
54745;SDS011;40640;48.130;11.356;2022-10-16T16:08:41;5.00;;;2.17;;
54745;SDS011;40640;48.130;11.356;2022-10-16T16:12:46;6.65;;;2.30;;
54745;SDS011;40640;48.130;11.356;2022-10-16T16:16:54;5.10;;;2.40;;
54745;SDS011;40640;48.130;11.356;2022-10-16T16:20:57;4.32;;;2.22;;
54745;SDS011;40640;48.130;11.356;2022-10-16T16:24:59;5.50;;;2.47;;
54745;SDS011;40640;48.130;11.356;2022-10-16T16:29:02;10.02;;;2.33;;
54745;SDS011;40640;48.130;11.356;2022-10-16T16:33:07;6.97;;;2.60;;
54745;SDS011;40640;48.130;11.356;2022-10-16T16:37:09;7.20;;;2.47;;
54745;SDS011;40640;48.130;11.356;2022-10-16T16:41:12;2.45;;;2.13;;
54745;SDS011;40640;48.130;11.356;2022-10-16T16:45:16;7.35;;;2.65;;
54745;SDS011;40640;48.130;11.356;2022-10-16T16:49:20;8.07;;;2.70;;
54745;SDS011;40640;48.130;11.356;2022-10-16T16:53:23;12.10;;;3.55;;
54745;SDS011;40640;48.130;11.356;2022-10-16T16:57:26;12.50;;;4.57;;
54745;SDS011;40640;48.130;11.356;2022-10-16T17:01:29;25.73;;;13.30;;
54745;SDS011;40640;48.130;11.356;2022-10-16T17:05:34;15.50;;;9.18;;
54745;SDS011;40640;48.130;11.356;2022-10-16T17:09:37;14.55;;;6.15;;
54745;SDS011;40640;48.130;11.356;2022-10-16T17:13:39;13.95;;;5.68;;
54745;SDS011;40640;48.130;11.356;2022-10-16T17:17:42;9.02;;;5.10;;
54745;SDS011;40640;48.130;11.356;2022-10-16T17:21:48;10.43;;;5.65;;
54745;SDS011;40640;48.130;11.356;2022-10-16T17:25:52;7.82;;;4.78;;
54745;SDS011;40640;48.130;11.356;2022-10-16T17:29:54;9.40;;;4.88;;
54745;SDS011;40640;48.130;11.356;2022-10-16T17:33:57;12.45;;;5.53;;
54745;SDS011;40640;48.130;11.356;2022-10-16T17:38:02;9.13;;;4.60;;
54745;SDS011;40640;48.130;11.356;2022-10-16T17:42:05;8.52;;;5.38;;
54745;SDS011;40640;48.130;11.356;2022-10-16T17:46:08;14.40;;;4.40;;
54745;SDS011;40640;48.130;11.356;2022-10-16T17:50:12;6.10;;;2.90;;
54745;SDS011;40640;48.130;11.356;2022-10-16T17:54:17;11.60;;;5.00;;
54745;SDS011;40640;48.130;11.356;2022-10-16T17:58:21;8.13;;;3.90;;
54745;SDS011;40640;48.130;11.356;2022-10-16T18:02:24;6.53;;;4.13;;
54745;SDS011;40640;48.130;11.356;2022-10-16T18:06:27;8.95;;;4.45;;
54745;SDS011;40640;48.130;11.356;2022-10-16T18:10:31;17.80;;;4.35;;
54745;SDS011;40640;48.130;11.356;2022-10-16T18:14:34;8.85;;;3.83;;
54745;SDS011;40640;48.130;11.356;2022-10-16T18:18:37;10.10;;;4.18;;
54745;SDS011;40640;48.130;11.356;2022-10-16T18:22:41;12.18;;;4.40;;
54745;SDS011;40640;48.130;11.356;2022-10-16T18:26:45;7.90;;;3.78;;
54745;SDS011;40640;48.130;11.356;2022-10-16T18:30:53;7.47;;;4.05;;
54745;SDS011;40640;48.130;11.356;2022-10-16T18:34:57;8.75;;;5.07;;
54745;SDS011;40640;48.130;11.356;2022-10-16T18:39:01;9.73;;;4.15;;
54745;SDS011;40640;48.130;11.356;2022-10-16T18:43:10;10.13;;;3.85;;
54745;SDS011;40640;48.130;11.356;2022-10-16T18:47:13;9.95;;;3.55;;
54745;SDS011;40640;48.130;11.356;2022-10-16T18:51:17;5.53;;;2.60;;
54745;SDS011;40640;48.130;11.356;2022-10-16T18:55:21;8.25;;;2.42;;
54745;SDS011;40640;48.130;11.356;2022-10-16T18:59:32;3.40;;;2.35;;
54745;SDS011;40640;48.130;11.356;2022-10-16T19:03:35;7.72;;;2.63;;
54745;SDS011;40640;48.130;11.356;2022-10-16T19:07:38;5.00;;;2.78;;
54745;SDS011;40640;48.130;11.356;2022-10-16T19:11:43;4.38;;;2.35;;
54745;SDS011;40640;48.130;11.356;2022-10-16T19:15:48;7.18;;;2.92;;
54745;SDS011;40640;48.130;11.356;2022-10-16T19:19:58;6.07;;;2.78;;
54745;SDS011;40640;48.130;11.356;2022-10-16T19:24:01;9.18;;;3.25;;
54745;SDS011;40640;48.130;11.356;2022-10-16T19:28:05;5.25;;;2.92;;
54745;SDS011;40640;48.130;11.356;2022-10-16T19:32:10;12.05;;;3.42;;
54745;SDS011;40640;48.130;11.356;2022-10-16T19:36:13;3.95;;;2.35;;
54745;SDS011;40640;48.130;11.356;2022-10-16T19:40:17;3.17;;;2.17;;
54745;SDS011;40640;48.130;11.356;2022-10-16T19:44:20;8.70;;;2.38;;
54745;SDS011;40640;48.130;11.356;2022-10-16T19:48:24;12.45;;;3.10;;
54745;SDS011;40640;48.130;11.356;2022-10-16T19:52:26;8.35;;;2.30;;
54745;SDS011;40640;48.130;11.356;2022-10-16T19:56:30;8.50;;;2.75;;
54745;SDS011;40640;48.130;11.356;2022-10-16T20:00:34;13.45;;;2.33;;
54745;SDS011;40640;48.130;11.356;2022-10-16T20:04:38;7.18;;;2.45;;
54745;SDS011;40640;48.130;11.356;2022-10-16T20:08:42;4.13;;;2.72;;
54745;SDS011;40640;48.130;11.356;2022-10-16T20:12:45;10.13;;;3.72;;
54745;SDS011;40640;48.130;11.356;2022-10-16T20:16:48;11.65;;;2.85;;
54745;SDS011;40640;48.130;11.356;2022-10-16T20:20:54;5.38;;;2.88;;
54745;SDS011;40640;48.130;11.356;2022-10-16T20:24:57;11.63;;;3.20;;
54745;SDS011;40640;48.130;11.356;2022-10-16T20:29:00;5.32;;;2.80;;
54745;SDS011;40640;48.130;11.356;2022-10-16T20:33:03;7.13;;;2.53;;
54745;SDS011;40640;48.130;11.356;2022-10-16T20:37:09;13.82;;;3.35;;
54745;SDS011;40640;48.130;11.356;2022-10-16T20:41:12;6.95;;;3.00;;
54745;SDS011;40640;48.130;11.356;2022-10-16T20:45:15;7.20;;;2.53;;
54745;SDS011;40640;48.130;11.356;2022-10-16T20:49:18;4.93;;;2.83;;
54745;SDS011;40640;48.130;11.356;2022-10-16T20:53:41;7.68;;;2.83;;
54745;SDS011;40640;48.130;11.356;2022-10-16T20:57:44;6.68;;;2.58;;
54745;SDS011;40640;48.130;11.356;2022-10-16T21:01:47;8.02;;;2.60;;
54745;SDS011;40640;48.130;11.356;2022-10-16T21:05:49;7.45;;;2.85;;
54745;SDS011;40640;48.130;11.356;2022-10-16T21:09:59;7.68;;;3.17;;
54745;SDS011;40640;48.130;11.356;2022-10-16T21:14:02;6.53;;;2.92;;
54745;SDS011;40640;48.130;11.356;2022-10-16T21:18:06;10.02;;;2.88;;
54745;SDS011;40640;48.130;11.356;2022-10-16T21:22:09;6.07;;;3.42;;
54745;SDS011;40640;48.130;11.356;2022-10-16T21:26:14;6.45;;;2.92;;
54745;SDS011;40640;48.130;11.356;2022-10-16T21:30:18;7.17;;;3.40;;
54745;SDS011;40640;48.130;11.356;2022-10-16T21:34:21;10.32;;;3.58;;
54745;SDS011;40640;48.130;11.356;2022-10-16T21:38:24;8.07;;;3.00;;
54745;SDS011;40640;48.130;11.356;2022-10-16T21:42:28;6.80;;;3.17;;
54745;SDS011;40640;48.130;11.356;2022-10-16T21:46:32;9.10;;;3.30;;
54745;SDS011;40640;48.130;11.356;2022-10-16T21:50:36;9.13;;;3.30;;
54745;SDS011;40640;48.130;11.356;2022-10-16T21:54:39;6.68;;;2.75;;
54745;SDS011;40640;48.130;11.356;2022-10-16T21:58:43;8.25;;;3.00;;
54745;SDS011;40640;48.130;11.356;2022-10-16T22:02:46;4.88;;;2.85;;
54745;SDS011;40640;48.130;11.356;2022-10-16T22:06:49;6.45;;;2.33;;
54745;SDS011;40640;48.130;11.356;2022-10-16T22:10:52;5.32;;;2.60;;
54745;SDS011;40640;48.130;11.356;2022-10-16T22:14:56;5.00;;;2.33;;
54745;SDS011;40640;48.130;11.356;2022-10-16T22:18:59;8.05;;;2.08;;
54745;SDS011;40640;48.130;11.356;2022-10-16T22:23:03;11.63;;;2.80;;
54745;SDS011;40640;48.130;11.356;2022-10-16T22:27:06;5.45;;;2.58;;
54745;SDS011;40640;48.130;11.356;2022-10-16T22:31:11;4.82;;;2.00;;
54745;SDS011;40640;48.130;11.356;2022-10-16T22:35:15;7.75;;;2.60;;
54745;SDS011;40640;48.130;11.356;2022-10-16T22:39:18;4.95;;;3.13;;
54745;SDS011;40640;48.130;11.356;2022-10-16T22:43:21;6.82;;;2.15;;
54745;SDS011;40640;48.130;11.356;2022-10-16T22:47:25;7.47;;;2.70;;
54745;SDS011;40640;48.130;11.356;2022-10-16T22:51:28;11.25;;;2.70;;
54745;SDS011;40640;48.130;11.356;2022-10-16T22:55:31;11.70;;;2.60;;
54745;SDS011;40640;48.130;11.356;2022-10-16T22:59:33;7.00;;;2.25;;
54745;SDS011;40640;48.130;11.356;2022-10-16T23:03:37;12.05;;;5.25;;
54745;SDS011;40640;48.130;11.356;2022-10-16T23:07:40;7.35;;;3.55;;
54745;SDS011;40640;48.130;11.356;2022-10-16T23:11:44;6.80;;;2.70;;
54745;SDS011;40640;48.130;11.356;2022-10-16T23:15:47;4.43;;;2.60;;
54745;SDS011;40640;48.130;11.356;2022-10-16T23:19:51;8.63;;;2.53;;
54745;SDS011;40640;48.130;11.356;2022-10-16T23:23:54;7.93;;;2.50;;
54745;SDS011;40640;48.130;11.356;2022-10-16T23:27:57;6.55;;;2.75;;
54745;SDS011;40640;48.130;11.356;2022-10-16T23:31:59;5.75;;;2.30;;
54745;SDS011;40640;48.130;11.356;2022-10-16T23:36:04;6.55;;;2.40;;
54745;SDS011;40640;48.130;11.356;2022-10-16T23:40:08;4.70;;;2.42;;
54745;SDS011;40640;48.130;11.356;2022-10-16T23:44:12;3.85;;;2.28;;
54745;SDS011;40640;48.130;11.356;2022-10-16T23:48:14;2.78;;;2.05;;
54745;SDS011;40640;48.130;11.356;2022-10-16T23:52:19;5.85;;;2.38;;
54745;SDS011;40640;48.130;11.356;2022-10-16T23:56:21;5.82;;;2.22;;
